Time;durP1;ratioP1;P1;durP2;ratioP2;P2;SDS_P1;SDS_P2;PMS_P1;PMS_P2;Temp;Humidity;BMP_temperature;BMP_pressure;BME280_temperature;BME280_humidity;BME280_pressure;Samples;Min_cycle;Max_cycle;Signal;HPM_P1;HPM_P2
2022/12/28 00:01:21;;;;;;;8.00;4.30;;;;;;;3.56;68.54;97467.75;4925409;29;20052;-84
2022/12/28 00:03:49;;;;;;;5.80;3.75;;;;;;;3.57;68.74;97465.06;4924885;29;20056;-87
2022/12/28 00:06:18;;;;;;;4.93;4.03;;;;;;;3.59;68.08;97458.03;4925248;29;20070;-85
2022/12/28 00:08:47;;;;;;;12.95;4.35;;;;;;;3.62;68.76;97467.28;4924417;29;20422;-84
2022/12/28 00:11:17;;;;;;;6.40;3.92;;;;;;;3.67;68.77;97471.19;4924521;29;20052;-85
2022/12/28 00:13:58;;;;;;;4.35;3.30;;;;;;;3.69;68.07;97471.84;4924376;29;20123;-84
2022/12/28 00:16:29;;;;;;;7.63;3.63;;;;;;;3.65;67.98;97467.91;4924272;29;20411;-86
2022/12/28 00:18:58;;;;;;;4.32;3.40;;;;;;;3.63;68.10;97466.34;4923142;29;20115;-81
2022/12/28 00:21:26;;;;;;;4.57;3.15;;;;;;;3.64;67.86;97476.56;4925509;29;20495;-83
2022/12/28 00:23:57;;;;;;;6.15;3.55;;;;;;;3.63;67.94;97462.03;4925208;29;20063;-86
2022/12/28 00:26:26;;;;;;;6.38;4.15;;;;;;;3.62;67.87;97464.72;4924555;29;20085;-83
2022/12/28 00:28:54;;;;;;;5.57;3.90;;;;;;;3.60;68.34;97459.66;4923859;29;20080;-85
2022/12/28 00:31:30;;;;;;;7.05;4.80;;;;;;;3.60;68.04;97445.94;4924730;29;20100;-84
2022/12/28 00:33:57;;;;;;;10.95;5.25;;;;;;;3.62;68.04;97447.47;4924445;29;20253;-86
2022/12/28 00:36:26;;;;;;;6.75;4.35;;;;;;;3.61;67.72;97445.03;4924050;29;20063;-88
2022/12/28 00:39:15;;;;;;;7.43;5.15;;;;;;;3.58;67.77;97443.47;4923635;29;20115;-86
2022/12/28 00:41:43;;;;;;;4.40;3.60;;;;;;;3.55;67.73;97451.47;4906540;29;20078;-82
2022/12/28 00:44:11;;;;;;;9.77;5.00;;;;;;;3.54;68.33;97442.06;4923060;29;20062;-87
2022/12/28 00:46:38;;;;;;;6.93;4.40;;;;;;;3.52;68.14;97438.81;4923190;29;20062;-83
2022/12/28 00:49:06;;;;;;;9.07;4.45;;;;;;;3.47;67.79;97431.38;4922660;29;20056;-87
2022/12/28 00:51:34;;;;;;;12.07;4.85;;;;;;;3.42;67.88;97427.53;4922548;29;20431;-84
2022/12/28 00:54:01;;;;;;;10.45;5.93;;;;;;;3.38;68.31;97428.72;4922561;29;20130;-87
2022/12/28 00:56:30;;;;;;;10.85;4.70;;;;;;;3.35;67.91;97416.88;4921674;29;20143;-89
2022/12/28 00:58:59;;;;;;;7.82;4.53;;;;;;;3.32;68.40;97418.84;4920780;29;20064;-82
2022/12/28 01:01:28;;;;;;;10.63;4.35;;;;;;;3.30;68.43;97414.66;4921021;29;20070;-79
2022/12/28 01:03:57;;;;;;;5.32;3.70;;;;;;;3.30;68.41;97413.78;4920659;29;20053;-83
2022/12/28 01:06:25;;;;;;;8.88;4.78;;;;;;;3.33;68.66;97415.34;4920906;29;20079;-83
2022/12/28 01:08:53;;;;;;;4.28;3.28;;;;;;;3.37;68.52;97415.00;4920691;29;20063;-83
2022/12/28 01:11:22;;;;;;;11.00;4.97;;;;;;;3.40;68.51;97413.94;4921060;29;20059;-90
2022/12/28 01:13:53;;;;;;;4.13;3.10;;;;;;;3.41;68.44;97416.41;4920283;29;20510;-79
2022/12/28 01:16:24;;;;;;;4.75;3.13;;;;;;;3.43;68.69;97411.97;4920016;29;20059;-79
2022/12/28 01:18:53;;;;;;;4.47;3.05;;;;;;;3.45;68.74;97422.94;4921407;29;20059;-84
2022/12/28 01:21:23;;;;;;;15.82;3.30;;;;;;;3.51;68.58;97426.84;4923527;29;20117;-82
2022/12/28 01:23:53;;;;;;;4.60;3.10;;;;;;;3.55;68.63;97428.25;4924119;29;20059;-86
2022/12/28 01:26:21;;;;;;;5.65;3.90;;;;;;;3.60;68.20;97426.13;4923980;29;20072;-85
2022/12/28 01:28:50;;;;;;;4.93;2.97;;;;;;;3.60;67.91;97420.97;4923846;29;20052;-87
2022/12/28 01:31:20;;;;;;;5.82;4.00;;;;;;;3.60;68.07;97413.22;4923443;29;20059;-88
2022/12/28 01:33:48;;;;;;;3.92;2.90;;;;;;;3.61;68.17;97411.47;4923340;29;20463;-85
2022/12/28 01:36:18;;;;;;;4.20;2.97;;;;;;;3.61;68.37;97407.13;4922836;29;20062;-86
2022/12/28 01:38:47;;;;;;;5.03;3.08;;;;;;;3.64;68.17;97399.16;4922679;29;20517;-82
2022/12/28 01:41:17;;;;;;;5.30;2.95;;;;;;;3.66;68.08;97399.84;4922595;29;20048;-86
2022/12/28 01:43:47;;;;;;;4.10;3.05;;;;;;;3.66;68.08;97388.72;4922522;29;20073;-82
2022/12/28 01:46:20;;;;;;;5.38;3.53;;;;;;;3.65;68.06;97392.22;4921241;29;20411;-81
2022/12/28 01:48:53;;;;;;;5.18;3.83;;;;;;;3.62;67.76;97379.56;4921338;29;20055;-85
2022/12/28 01:51:22;;;;;;;4.88;3.30;;;;;;;3.57;67.99;97379.94;4920829;29;20082;-85
2022/12/28 01:53:53;;;;;;;5.72;3.15;;;;;;;3.57;68.36;97379.13;4920170;29;20150;-84
2022/12/28 01:56:22;;;;;;;6.43;2.80;;;;;;;3.55;68.24;97371.50;4920270;29;20059;-84
2022/12/28 01:58:50;;;;;;;6.60;3.10;;;;;;;3.54;68.18;97364.69;4920428;29;20491;-81
2022/12/28 02:01:19;;;;;;;3.25;2.42;;;;;;;3.52;68.57;97361.41;4920092;29;20502;-83
2022/12/28 02:03:47;;;;;;;4.85;3.00;;;;;;;3.54;68.75;97356.13;4920192;29;20052;-83
2022/12/28 02:06:14;;;;;;;2.45;2.05;;;;;;;3.54;68.58;97354.34;4919405;29;20063;-82
2022/12/28 02:08:49;;;;;;;3.65;2.20;;;;;;;3.57;68.40;97345.59;4919269;29;20426;-81
2022/12/28 02:11:18;;;;;;;3.22;2.38;;;;;;;3.58;68.11;97344.63;4920300;29;20055;-83
2022/12/28 02:13:48;;;;;;;4.50;2.70;;;;;;;3.58;68.63;97337.69;4922923;29;20056;-81
2022/12/28 02:16:15;;;;;;;3.55;2.67;;;;;;;3.61;68.68;97334.09;4922876;29;20498;-83
2022/12/28 02:18:46;;;;;;;4.47;3.20;;;;;;;3.61;68.42;97323.78;4925742;29;20087;-88
2022/12/28 02:21:28;;;;;;;6.45;2.75;;;;;;;3.60;68.70;97324.69;4926662;29;20060;-85
2022/12/28 02:24:22;;;;;;;3.78;2.45;;;;;;;3.62;68.68;97321.03;4924609;29;20055;-88
2022/12/28 02:51:45;;;;;;;5.22;2.47;;;;;;;3.71;68.18;97284.19;4942503;29;20055;-84
2022/12/28 02:57:28;;;;;;;3.13;2.10;;;;;;;3.76;68.34;97272.69;4925986;29;20491;-85
2022/12/28 03:10:45;;;;;;;3.95;2.10;;;;;;;3.94;68.08;97263.50;5479241;23;20052;-77
2022/12/28 03:16:07;;;;;;;2.58;1.85;;;;;;;3.91;68.23;97258.56;4941566;29;20052;-78
2022/12/28 03:32:36;;;;;;;3.45;2.40;;;;;;;3.94;68.79;97254.94;4918416;29;20063;-78
2022/12/28 03:35:03;;;;;;;3.30;2.25;;;;;;;3.92;68.46;97244.72;4918127;29;20056;-78
2022/12/28 03:37:36;;;;;;;3.33;2.60;;;;;;;3.89;68.53;97239.78;4918322;29;20149;-79
2022/12/28 03:40:09;;;;;;;3.60;2.50;;;;;;;3.86;68.78;97242.63;4917910;29;20138;-78
2022/12/28 03:45:40;;;;;;;6.15;3.17;;;;;;;3.83;68.99;97227.41;4919402;29;20438;-78
2022/12/28 03:48:14;;;;;;;3.72;2.85;;;;;;;3.86;68.90;97219.41;4917728;29;20059;-77
2022/12/28 03:50:47;;;;;;;2.85;2.38;;;;;;;3.88;68.77;97218.34;4917315;29;20519;-78
2022/12/28 03:53:16;;;;;;;4.95;2.50;;;;;;;3.88;68.93;97214.94;4917729;29;20055;-78
2022/12/28 03:55:43;;;;;;;4.13;2.67;;;;;;;3.88;69.29;97220.91;4917904;29;20048;-78
2022/12/28 03:58:12;;;;;;;4.10;2.58;;;;;;;3.87;69.20;97216.72;4917234;29;20442;-78
2022/12/28 04:00:39;;;;;;;3.90;2.90;;;;;;;3.88;69.61;97207.19;4917320;29;20059;-78
2022/12/28 04:03:07;;;;;;;3.53;2.47;;;;;;;3.91;70.12;97206.94;4917486;29;20060;-77
2022/12/28 04:05:35;;;;;;;3.20;2.67;;;;;;;3.94;69.60;97198.16;4917359;29;20051;-77
2022/12/28 04:08:02;;;;;;;3.13;2.53;;;;;;;3.94;69.60;97198.16;4916839;29;20052;-77
2022/12/28 04:10:30;;;;;;;3.75;2.83;;;;;;;3.95;69.30;97197.19;4917149;29;20512;-78
2022/12/28 04:12:57;;;;;;;4.35;3.28;;;;;;;3.98;69.41;97191.75;4917200;29;20052;-77
2022/12/28 04:15:26;;;;;;;4.65;2.90;;;;;;;3.98;69.21;97184.84;4917600;29;20058;-80
2022/12/28 04:17:54;;;;;;;3.60;3.13;;;;;;;4.01;69.53;97178.63;4916584;29;20138;-78
2022/12/28 04:20:21;;;;;;;4.10;2.95;;;;;;;4.04;70.34;97170.63;4916808;29;20060;-78
2022/12/28 04:22:49;;;;;;;3.47;2.40;;;;;;;4.09;70.01;97161.56;4917219;29;20051;-77
2022/12/28 04:25:16;;;;;;;4.25;2.20;;;;;;;4.15;69.84;97161.97;4917109;29;20071;-78
2022/12/28 04:27:44;;;;;;;5.95;2.20;;;;;;;4.18;69.35;97172.88;4917147;29;20434;-77
2022/12/28 04:30:11;;;;;;;3.58;1.88;;;;;;;4.23;69.74;97162.16;4918444;29;20052;-78
2022/12/28 04:32:40;;;;;;;4.05;2.72;;;;;;;4.27;69.65;97166.13;4918991;29;20052;-78
2022/12/28 04:35:08;;;;;;;3.17;2.20;;;;;;;4.30;69.63;97166.69;4917030;29;20052;-78
2022/12/28 04:37:36;;;;;;;4.15;2.75;;;;;;;4.32;69.33;97176.88;4921978;29;20515;-77
2022/12/28 04:40:05;;;;;;;2.75;2.33;;;;;;;4.32;69.12;97174.31;4926345;29;20055;-78
2022/12/28 04:42:32;;;;;;;3.47;2.60;;;;;;;4.34;69.17;97182.75;4923629;29;20050;-78
2022/12/28 04:44:59;;;;;;;4.00;3.00;;;;;;;4.34;69.55;97180.16;4916982;29;20469;-78
2022/12/28 04:47:28;;;;;;;3.50;2.72;;;;;;;4.36;69.44;97180.84;4916747;29;20058;-78
2022/12/28 04:49:57;;;;;;;4.70;3.00;;;;;;;4.37;69.08;97182.47;4916177;29;20052;-78
2022/12/28 04:52:24;;;;;;;3.25;2.55;;;;;;;4.37;69.30;97176.50;4916809;29;20054;-78
2022/12/28 04:54:52;;;;;;;3.90;2.72;;;;;;;4.37;69.68;97179.91;4916742;29;20068;-78
2022/12/28 04:57:19;;;;;;;3.70;2.80;;;;;;;4.40;69.41;97171.09;4916333;29;20056;-78
2022/12/28 04:59:47;;;;;;;4.55;2.70;;;;;;;4.43;69.28;97165.66;4916242;29;20067;-78
2022/12/28 05:02:14;;;;;;;4.03;2.35;;;;;;;4.44;69.51;97157.78;4917000;29;20048;-77
2022/12/28 05:04:42;;;;;;;4.43;2.83;;;;;;;4.46;69.18;97150.72;4916944;29;20063;-77
2022/12/28 05:07:11;;;;;;;4.88;2.97;;;;;;;4.48;69.59;97151.41;4916424;29;20067;-78
2022/12/28 05:09:38;;;;;;;6.25;2.85;;;;;;;4.51;69.42;97145.16;4916334;29;20503;-78
2022/12/28 05:12:06;;;;;;;12.27;5.15;;;;;;;4.53;69.22;97157.00;4919031;29;20434;-78
2022/12/28 05:14:33;;;;;;;8.20;3.92;;;;;;;4.57;68.97;97143.81;4920051;29;20057;-78
2022/12/28 05:17:04;;;;;;;8.52;4.40;;;;;;;4.59;69.73;97150.50;4919487;29;20064;-78
2022/12/28 05:19:31;;;;;;;5.35;3.17;;;;;;;4.63;69.45;97151.84;4938518;29;20056;-78
2022/12/28 05:21:59;;;;;;;7.15;3.97;;;;;;;4.67;70.06;97147.25;4938628;29;20060;-78
2022/12/28 05:24:27;;;;;;;5.10;3.00;;;;;;;4.72;70.09;97142.50;4932181;29;20075;-78
2022/12/28 05:26:55;;;;;;;5.05;3.22;;;;;;;4.76;69.94;97151.63;4917965;29;20063;-78
2022/12/28 05:29:22;;;;;;;4.18;2.78;;;;;;;4.81;69.49;97149.50;4916624;29;20059;-78
2022/12/28 05:31:50;;;;;;;4.93;2.60;;;;;;;4.83;69.32;97142.41;4916853;29;20052;-78
2022/12/28 05:34:18;;;;;;;4.45;2.70;;;;;;;4.87;69.94;97145.53;4916346;29;20055;-78
2022/12/28 05:36:45;;;;;;;4.72;2.50;;;;;;;4.92;69.40;97138.22;4916564;29;20048;-78
2022/12/28 05:39:13;;;;;;;2.72;2.17;;;;;;;4.94;68.80;97134.56;4915990;29;20048;-78
2022/12/28 05:41:41;;;;;;;4.63;2.20;;;;;;;4.95;69.14;97131.00;4916255;29;20052;-77
2022/12/28 05:44:09;;;;;;;4.10;2.53;;;;;;;4.97;68.74;97138.63;4916810;29;20063;-78
2022/12/28 05:46:36;;;;;;;6.40;3.15;;;;;;;4.96;68.74;97126.63;4919074;29;20058;-78
2022/12/28 05:49:07;;;;;;;3.45;2.55;;;;;;;4.93;68.43;97127.72;4919899;29;20052;-78
2022/12/28 05:51:35;;;;;;;4.30;2.58;;;;;;;4.92;68.94;97120.94;4919671;29;20421;-78
2022/12/28 05:54:04;;;;;;;3.28;2.53;;;;;;;4.93;68.36;97127.72;4919996;29;20062;-77
2022/12/28 05:56:32;;;;;;;4.22;2.30;;;;;;;4.95;69.30;97125.81;4919871;29;20056;-78
2022/12/28 05:59:03;;;;;;;6.95;2.85;;;;;;;5.00;69.54;97128.00;4919621;29;20063;-78
2022/12/28 06:01:33;;;;;;;8.23;2.95;;;;;;;5.03;69.15;97127.75;4919855;29;20510;-78
2022/12/28 06:04:02;;;;;;;5.07;3.58;;;;;;;5.04;69.02;97133.75;4919766;29;20056;-78
2022/12/28 06:06:32;;;;;;;3.15;2.83;;;;;;;5.04;68.53;97136.31;4919663;29;20537;-78
2022/12/28 06:09:00;;;;;;;3.47;2.72;;;;;;;5.05;68.86;97130.19;4919652;29;20058;-78
2022/12/28 06:11:29;;;;;;;5.55;2.83;;;;;;;5.07;68.86;97133.47;4919336;29;20090;-78
2022/12/28 06:13:58;;;;;;;3.63;2.40;;;;;;;5.11;69.58;97134.84;4919864;29;20055;-78
2022/12/28 06:16:28;;;;;;;4.05;2.90;;;;;;;5.16;69.51;97136.06;4919564;29;20525;-78
2022/12/28 06:18:56;;;;;;;7.15;2.58;;;;;;;5.20;69.82;97128.03;4919308;29;20089;-78
2022/12/28 06:21:25;;;;;;;4.90;2.55;;;;;;;5.22;69.26;97121.78;4919324;29;20059;-78
2022/12/28 06:23:56;;;;;;;4.90;2.90;;;;;;;5.25;69.33;97124.09;4919684;29;20056;-78
2022/12/28 06:26:24;;;;;;;6.97;3.08;;;;;;;5.30;69.37;97128.88;4919440;29;20052;-78
2022/12/28 06:28:52;;;;;;;5.47;3.10;;;;;;;5.35;69.68;97126.69;4919158;29;20151;-78
2022/12/28 06:31:21;;;;;;;3.10;2.05;;;;;;;5.41;69.69;97117.56;4919167;29;20056;-78
2022/12/28 06:33:52;;;;;;;3.22;1.95;;;;;;;5.45;69.41;97121.53;4918982;29;20052;-78
2022/12/28 06:36:23;;;;;;;2.67;2.08;;;;;;;5.49;70.06;97122.88;4919324;29;20098;-78
2022/12/28 06:38:54;;;;;;;4.28;2.40;;;;;;;5.52;70.00;97123.41;4918898;29;20054;-78
2022/12/28 06:41:22;;;;;;;4.50;1.73;;;;;;;5.56;69.37;97109.25;4918935;29;20056;-78
2022/12/28 06:43:51;;;;;;;6.13;2.53;;;;;;;5.61;69.16;97119.19;4918935;29;20059;-78
2022/12/28 06:46:20;;;;;;;2.70;1.73;;;;;;;5.67;69.86;97110.06;4918798;29;20056;-78
2022/12/28 06:48:50;;;;;;;4.10;2.10;;;;;;;5.69;68.91;97108.97;4918669;29;20071;-78
2022/12/28 06:51:19;;;;;;;3.05;2.00;;;;;;;5.73;69.72;97110.31;4937219;29;20044;-77
2022/12/28 06:53:48;;;;;;;2.65;2.30;;;;;;;5.77;69.25;97111.69;4940030;29;20036;-77
2022/12/28 06:56:18;;;;;;;2.95;2.20;;;;;;;5.81;68.83;97099.25;4940491;29;20121;-78
2022/12/28 06:58:47;;;;;;;4.18;2.35;;;;;;;5.82;69.01;97093.16;4938855;29;20076;-78
2022/12/28 07:01:17;;;;;;;4.68;3.05;;;;;;;5.84;69.65;97103.34;4924893;29;20068;-78
2022/12/28 07:03:45;;;;;;;4.72;3.40;;;;;;;5.85;69.78;97092.03;4918762;29;20083;-78
2022/12/28 07:06:15;;;;;;;10.30;4.13;;;;;;;5.84;68.64;97101.59;4918714;29;20522;-77
2022/12/28 07:08:45;;;;;;;4.30;3.42;;;;;;;5.82;68.30;97097.50;4918475;29;20060;-78
2022/12/28 07:11:15;;;;;;;4.85;3.30;;;;;;;5.82;68.21;97100.09;4918207;29;20060;-78
2022/12/28 07:13:42;;;;;;;5.32;4.05;;;;;;;5.81;68.26;97101.03;4918569;29;20052;-78
2022/12/28 07:16:12;;;;;;;4.80;3.80;;;;;;;5.79;68.77;97101.16;4918552;29;20048;-78
2022/12/28 07:18:40;;;;;;;4.65;3.83;;;;;;;5.81;68.68;97103.63;4918099;29;20139;-78
2022/12/28 07:21:11;;;;;;;4.75;3.72;;;;;;;5.78;68.85;97108.13;4918594;29;20048;-78
2022/12/28 07:23:40;;;;;;;5.57;3.50;;;;;;;5.78;69.24;97105.53;4918290;29;20055;-78
2022/12/28 07:26:10;;;;;;;5.88;3.42;;;;;;;5.77;68.75;97103.91;4918491;29;20051;-78
2022/12/28 07:28:38;;;;;;;5.60;3.67;;;;;;;5.76;68.68;97102.28;4918129;29;20052;-78
2022/12/28 07:31:07;;;;;;;5.43;3.75;;;;;;;5.73;68.11;97092.22;4919001;29;20152;-78
2022/12/28 07:33:35;;;;;;;4.47;3.22;;;;;;;5.70;68.40;97097.66;4918221;29;20430;-78
2022/12/28 07:36:03;;;;;;;4.60;3.25;;;;;;;5.71;68.50;97086.34;4918260;29;20074;-78
2022/12/28 07:38:31;;;;;;;4.50;3.35;;;;;;;5.72;68.13;97081.97;4922256;29;20052;-79
2022/12/28 07:41:03;;;;;;;4.45;2.63;;;;;;;5.70;68.33;97087.28;4930885;29;20400;-79
2022/12/28 07:43:31;;;;;;;5.22;3.72;;;;;;;5.70;67.85;97069.16;4926852;29;20048;-78
2022/12/28 07:46:02;;;;;;;6.05;4.10;;;;;;;5.66;68.08;97070.41;4918233;29;20051;-78
2022/12/28 07:48:31;;;;;;;5.60;3.88;;;;;;;5.63;68.45;97068.09;4917643;29;20585;-78
2022/12/28 07:51:05;;;;;;;7.18;4.47;;;;;;;5.62;68.30;97076.84;4917737;29;20067;-78
2022/12/28 07:53:33;;;;;;;7.47;4.63;;;;;;;5.61;67.94;97069.19;4918355;29;20439;-78
2022/12/28 07:56:02;;;;;;;7.70;4.47;;;;;;;5.59;68.14;97077.09;4918451;29;20044;-78
2022/12/28 07:58:30;;;;;;;7.85;4.60;;;;;;;5.58;68.33;97070.31;4918278;29;20140;-78
2022/12/28 08:01:04;;;;;;;7.43;5.22;;;;;;;5.56;68.49;97065.25;4918397;29;20080;-78
2022/12/28 08:03:32;;;;;;;8.73;4.82;;;;;;;5.55;68.55;97066.22;4917839;29;20052;-78
2022/12/28 08:06:05;;;;;;;7.10;4.78;;;;;;;5.56;69.46;97062.66;4917802;29;20558;-78
2022/12/28 08:08:34;;;;;;;6.47;3.97;;;;;;;5.60;68.82;97073.56;4917511;29;20060;-78
2022/12/28 08:11:05;;;;;;;5.55;3.88;;;;;;;5.63;69.10;97065.53;4917706;29;20509;-78
2022/12/28 08:13:34;;;;;;;5.68;3.63;;;;;;;5.68;69.04;97075.44;4917415;29;20070;-78
2022/12/28 08:16:02;;;;;;;6.30;3.65;;;;;;;5.71;68.71;97070.81;4917477;29;20169;-77
2022/12/28 08:18:30;;;;;;;4.53;3.50;;;;;;;5.75;69.15;97074.75;4917353;29;20143;-78
2022/12/28 08:21:00;;;;;;;5.38;4.20;;;;;;;5.77;68.88;97065.09;4917451;29;20415;-78
2022/12/28 08:23:28;;;;;;;4.90;3.53;;;;;;;5.79;68.47;97072.69;4918919;29;20052;-78
2022/12/28 08:25:55;;;;;;;5.70;3.78;;;;;;;5.81;68.36;97064.78;4918038;29;20517;-78
2022/12/28 08:28:24;;;;;;;5.30;3.85;;;;;;;5.81;68.35;97070.78;4917183;29;20052;-79
2022/12/28 08:30:52;;;;;;;4.40;3.42;;;;;;;5.85;68.86;97071.34;4917330;29;20510;-78
2022/12/28 08:33:19;;;;;;;4.57;3.40;;;;;;;5.88;68.45;97068.44;4917094;29;20048;-78
2022/12/28 08:35:47;;;;;;;4.80;3.53;;;;;;;5.92;69.42;97067.22;4917020;29;20135;-78
2022/12/28 08:38:14;;;;;;;5.85;3.75;;;;;;;5.95;68.96;97061.81;4916323;29;20378;-78
2022/12/28 08:40:42;;;;;;;4.38;3.50;;;;;;;5.98;68.49;97066.69;4916543;29;20557;-78
2022/12/28 08:43:09;;;;;;;5.07;3.13;;;;;;;6.00;69.05;97059.59;4917169;29;20058;-78
2022/12/28 08:45:38;;;;;;;7.32;3.72;;;;;;;6.04;69.24;97060.13;4917088;29;20059;-78
2022/12/28 08:48:06;;;;;;;6.65;3.05;;;;;;;6.06;68.29;97053.06;4916412;29;20111;-78
2022/12/28 08:50:33;;;;;;;8.55;3.78;;;;;;;6.10;69.16;97054.38;4919480;29;20067;-78
2022/12/28 08:53:01;;;;;;;3.80;3.20;;;;;;;6.13;68.92;97049.72;4918719;29;20145;-78
2022/12/28 08:55:28;;;;;;;5.07;3.53;;;;;;;6.16;68.55;97041.66;4917707;29;20059;-79
2022/12/28 08:57:56;;;;;;;5.97;3.45;;;;;;;6.18;68.17;97042.34;4916383;29;20051;-78
2022/12/28 09:00:24;;;;;;;3.75;3.17;;;;;;;6.22;68.99;97042.06;4916792;29;20159;-78
2022/12/28 09:02:54;;;;;;;5.35;3.60;;;;;;;6.26;68.61;97043.41;4916705;29;20052;-78
2022/12/28 09:05:22;;;;;;;4.05;3.20;;;;;;;6.28;68.01;97044.09;4917572;29;20462;-79
2022/12/28 09:07:51;;;;;;;4.03;2.95;;;;;;;6.30;68.67;97040.41;4920433;29;20067;-78
2022/12/28 09:26:37;;;;;;;11.50;4.60;;;;;;;6.41;66.99;97047.16;5622314;23;20050;-79
2022/12/28 09:29:08;;;;;;;11.02;5.47;;;;;;;6.41;67.51;97044.56;4938675;29;20051;-79
2022/12/28 09:31:36;;;;;;;6.53;4.32;;;;;;;6.44;68.32;97046.06;4939363;29;20055;-79
2022/12/28 09:34:04;;;;;;;3.65;3.10;;;;;;;6.47;68.41;97048.34;4939138;29;20047;-79
2022/12/28 09:36:51;;;;;;;3.67;2.80;;;;;;;6.52;67.86;97044.38;4928656;29;20056;-79
2022/12/28 09:39:23;;;;;;;6.30;3.97;;;;;;;6.57;67.29;97046.53;4919968;29;20134;-79
2022/12/28 09:41:55;;;;;;;6.73;2.80;;;;;;;6.64;67.85;97055.34;4920114;29;20052;-80
2022/12/28 09:44:52;;;;;;;5.30;4.00;;;;;;;6.70;67.74;97048.75;4919862;29;20483;-79
2022/12/28 09:47:28;;;;;;;5.47;3.72;;;;;;;6.73;67.65;97045.88;4918101;29;20103;-79
2022/12/28 09:50:05;;;;;;;3.30;2.70;;;;;;;6.79;66.89;97051.28;4919872;29;20056;-80
2022/12/28 09:52:35;;;;;;;4.63;3.30;;;;;;;6.85;67.42;97043.91;4921921;29;20292;-79
2022/12/28 09:55:10;;;;;;;3.42;3.00;;;;;;;6.93;67.11;97041.34;4923080;29;20531;-79
2022/12/28 09:57:43;;;;;;;4.18;3.30;;;;;;;7.01;66.87;97039.66;4922706;29;20055;-79
2022/12/28 10:00:17;;;;;;;3.13;2.78;;;;;;;7.09;67.75;97036.34;4919926;29;20054;-79
2022/12/28 10:02:49;;;;;;;5.15;2.88;;;;;;;7.15;65.80;97042.69;4920481;29;20446;-79
2022/12/28 10:05:17;;;;;;;4.72;3.05;;;;;;;7.20;65.68;97027.50;4919923;29;20048;-79
2022/12/28 10:07:44;;;;;;;3.65;3.03;;;;;;;7.27;65.30;97033.72;4919794;29;20055;-79
2022/12/28 10:10:16;;;;;;;3.60;2.72;;;;;;;7.34;65.55;97024.34;4919302;29;20052;-79
2022/12/28 10:12:47;;;;;;;3.95;3.03;;;;;;;7.42;66.14;97021.84;4919404;29;20148;-79
2022/12/28 10:15:15;;;;;;;3.65;3.03;;;;;;;7.52;66.12;97013.13;4919178;29;20052;-79
2022/12/28 10:17:44;;;;;;;3.90;3.03;;;;;;;7.58;64.96;97015.94;4919110;29;20048;-79
2022/12/28 10:20:16;;;;;;;4.13;2.80;;;;;;;7.65;64.57;97013.53;4918926;29;20503;-79
2022/12/28 10:22:48;;;;;;;5.18;2.85;;;;;;;7.73;65.13;96998.00;4919362;29;20076;-79
2022/12/28 10:25:18;;;;;;;4.88;3.50;;;;;;;7.81;65.21;96994.66;4919429;29;20079;-79
2022/12/28 10:27:48;;;;;;;4.40;3.65;;;;;;;7.85;65.06;96990.78;4918818;29;20064;-79
2022/12/28 10:30:18;;;;;;;4.88;3.42;;;;;;;7.90;64.68;96982.53;4925609;29;20052;-79
2022/12/28 10:32:51;;;;;;;4.40;3.67;;;;;;;7.97;64.78;96988.72;4935746;29;20049;-79
2022/12/28 10:35:25;;;;;;;4.05;3.33;;;;;;;8.03;64.87;96978.50;4938204;29;20427;-79
2022/12/28 10:37:59;;;;;;;9.77;4.75;;;;;;;8.07;63.80;96984.22;4920528;29;20062;-79
2022/12/28 10:40:29;;;;;;;6.43;4.57;;;;;;;8.09;64.43;96984.03;4920824;29;20074;-79
2022/12/28 10:42:59;;;;;;;5.28;3.28;;;;;;;8.12;63.52;96981.97;4920149;29;20055;-79
2022/12/28 10:45:36;;;;;;;6.30;5.30;;;;;;;8.17;63.43;96978.88;4926073;29;20060;-79
2022/12/28 10:48:09;;;;;;;6.47;5.22;;;;;;;8.21;63.15;96973.22;4925039;29;20250;-80
2022/12/28 10:50:41;;;;;;;6.72;4.30;;;;;;;8.28;63.17;96972.59;4921434;29;20060;-79
2022/12/28 10:53:23;;;;;;;4.80;4.20;;;;;;;8.35;62.22;96971.81;4919218;29;20059;-79
2022/12/28 10:56:01;;;;;;;5.22;3.40;;;;;;;8.44;64.56;96975.28;4918738;29;20052;-79
2022/12/28 10:58:31;;;;;;;3.42;2.50;;;;;;;8.51;63.63;96976.25;4918667;29;20055;-79
2022/12/28 11:01:04;;;;;;;5.20;2.85;;;;;;;8.60;64.32;96977.91;4918824;29;20139;-79
2022/12/28 11:03:35;;;;;;;2.92;2.50;;;;;;;8.68;63.02;96955.47;4919301;29;20052;-79
2022/12/28 11:06:11;;;;;;;3.03;2.17;;;;;;;8.75;63.55;96951.28;4918064;29;20056;-79
2022/12/28 11:08:41;;;;;;;2.65;2.22;;;;;;;8.83;63.53;96948.66;4918520;29;20430;-79
2022/12/28 11:11:18;;;;;;;2.10;1.80;;;;;;;8.92;61.88;96942.50;4918656;29;20511;-79
2022/12/28 11:13:51;;;;;;;3.47;1.90;;;;;;;9.03;60.52;96926.56;4918310;29;20052;-80
2022/12/28 11:16:19;;;;;;;4.35;2.03;;;;;;;9.13;62.18;96925.56;4918076;29;20052;-79
2022/12/28 11:18:47;;;;;;;5.32;2.20;;;;;;;9.23;61.50;96919.22;4918067;29;20491;-79
2022/12/28 11:21:19;;;;;;;2.33;1.77;;;;;;;9.36;61.25;96926.53;4918466;29;20052;-79
2022/12/28 11:23:48;;;;;;;3.22;1.73;;;;;;;9.47;60.39;96920.97;4918585;29;20083;-79
2022/12/28 11:26:17;;;;;;;2.00;1.65;;;;;;;9.60;60.14;96911.78;4918335;29;20058;-79
2022/12/28 11:28:48;;;;;;;2.10;1.50;;;;;;;9.73;59.65;96911.25;4918002;29;20048;-79
2022/12/28 11:31:22;;;;;;;2.30;1.80;;;;;;;9.84;58.26;96911.72;4918769;29;20056;-79
2022/12/28 11:33:52;;;;;;;2.95;1.83;;;;;;;9.94;59.08;96914.09;4918218;29;20052;-79
2022/12/28 11:36:23;;;;;;;2.63;1.75;;;;;;;10.03;59.55;96917.50;4918147;29;20048;-79
2022/12/28 11:38:53;;;;;;;2.33;1.83;;;;;;;10.10;58.20;96902.78;4917912;29;20055;-80
2022/12/28 11:41:43;;;;;;;2.50;1.75;;;;;;;10.17;58.39;96901.13;4918247;29;20044;-79
2022/12/28 11:44:52;;;;;;;3.08;1.40;;;;;;;10.30;56.85;96900.63;4917778;29;20056;-79
2022/12/28 11:47:31;;;;;;;2.53;1.33;;;;;;;10.41;57.20;96902.00;4917618;29;20063;-79
2022/12/28 11:50:38;;;;;;;1.70;1.42;;;;;;;10.51;56.17;96907.78;4917441;29;20060;-80
2022/12/28 11:53:20;;;;;;;3.92;1.73;;;;;;;10.65;57.78;96909.66;4917566;29;20052;-79
2022/12/28 11:56:02;;;;;;;2.08;1.60;;;;;;;10.79;55.91;96884.59;4917368;29;20055;-79
2022/12/28 11:59:02;;;;;;;1.73;1.23;;;;;;;10.95;55.97;96894.06;4917821;29;20604;-79
2022/12/28 12:01:45;;;;;;;3.63;1.60;;;;;;;11.09;54.37;96884.69;4917828;29;20060;-79
2022/12/28 12:04:27;;;;;;;2.50;1.75;;;;;;;11.17;55.93;96875.94;4917448;29;20066;-80
2022/12/28 12:07:40;;;;;;;3.67;1.88;;;;;;;11.23;55.69;96870.00;4917240;29;20052;-79
2022/12/28 12:10:30;;;;;;;2.00;1.00;;;;;;;11.27;55.13;96868.66;4916094;29;20055;-81
2022/12/28 12:12:58;;;;;;;3.05;1.40;;;;;;;11.31;56.02;96862.09;4917302;29;20052;-80
2022/12/28 12:15:33;;;;;;;2.95;1.73;;;;;;;11.32;54.15;96855.88;4917424;29;20048;-79
2022/12/28 12:18:05;;;;;;;2.10;1.90;;;;;;;11.31;53.62;96852.44;4917012;29;20075;-79
2022/12/28 12:20:53;;;;;;;1.70;1.52;;;;;;;11.29;53.88;96853.63;4917348;29;20429;-80
2022/12/28 12:23:45;;;;;;;3.60;2.00;;;;;;;11.21;53.65;96840.66;4917421;29;20059;-79
2022/12/28 12:26:26;;;;;;;2.13;1.93;;;;;;;11.16;54.86;96840.38;4917202;29;20502;-79
2022/12/28 12:28:58;;;;;;;1.60;1.50;;;;;;;11.10;55.34;96837.47;4917352;29;20361;-79
2022/12/28 12:31:29;;;;;;;2.85;1.50;;;;;;;11.12;54.53;96837.31;4917136;29;20099;-80
2022/12/28 12:34:06;;;;;;;3.17;1.85;;;;;;;11.15;53.99;96829.13;4917257;29;20082;-79
2022/12/28 12:37:12;;;;;;;3.17;1.65;;;;;;;11.20;55.22;96824.19;4917082;29;20509;-80
2022/12/28 12:39:56;;;;;;;2.47;1.48;;;;;;;11.23;56.13;96812.56;4894511;29;20064;-79
2022/12/28 12:42:34;;;;;;;1.52;1.08;;;;;;;11.22;54.86;96809.16;4917240;29;20056;-79
2022/12/28 12:45:13;;;;;;;1.38;1.27;;;;;;;11.21;54.23;96814.53;4917487;29;20064;-79
2022/12/28 12:48:13;;;;;;;1.52;1.00;;;;;;;11.21;54.76;96812.72;4916635;29;20088;-79
2022/12/28 12:50:59;;;;;;;2.38;1.10;;;;;;;11.21;53.82;96809.31;4916817;29;20116;-80
2022/12/28 12:53:42;;;;;;;1.30;1.20;;;;;;;11.18;53.95;96800.03;4916848;29;20059;-80
2022/12/28 12:56:28;;;;;;;3.00;1.27;;;;;;;11.14;55.45;96802.19;4915958;29;20127;-80
2022/12/28 12:59:04;;;;;;;1.65;1.30;;;;;;;11.07;54.30;96801.31;4916989;29;20056;-80
2022/12/28 13:01:39;;;;;;;1.13;0.85;;;;;;;11.02;55.57;96798.44;4921791;29;20046;-79
2022/12/28 13:04:14;;;;;;;1.45;1.10;;;;;;;10.99;55.60;96796.16;4930523;29;20059;-80
2022/12/28 13:06:43;;;;;;;2.95;1.35;;;;;;;10.96;55.06;96793.13;4928538;29;20058;-80
2022/12/28 13:09:16;;;;;;;2.30;1.60;;;;;;;10.91;55.33;96786.63;4919562;29;20111;-79
2022/12/28 13:11:44;;;;;;;2.22;1.20;;;;;;;10.88;56.05;96781.75;4917381;29;20051;-79
2022/12/28 13:14:18;;;;;;;1.30;1.20;;;;;;;10.88;55.34;96783.56;4916799;29;20126;-80
2022/12/28 13:16:48;;;;;;;2.63;1.10;;;;;;;10.86;55.41;96782.94;4916320;29;20064;-79